Time;durP1;ratioP1;P1;durP2;ratioP2;P2;SDS_P1;SDS_P2;PMS_P1;PMS_P2;Temp;Humidity;BMP_temperature;BMP_pressure;BME280_temperature;BME280_humidity;BME280_pressure;Samples;Min_cycle;Max_cycle;Signal;HPM_P1;HPM_P2
2023/05/02 00:01:28;;;;;;;5.60;5.10;;;14.80;42.40;;;;;;10393939;28;20226;-76
2023/05/02 00:06:33;;;;;;;5.37;4.97;;;14.70;41.90;;;;;;10391560;28;20705;-76
2023/05/02 00:11:37;;;;;;;5.47;5.07;;;14.60;42.00;;;;;;10393494;28;20240;-76
2023/05/02 00:16:40;;;;;;;5.73;5.33;;;14.50;42.10;;;;;;10399178;28;20741;-77
2023/05/02 00:21:47;;;;;;;4.37;4.07;;;14.50;42.10;;;;;;10395655;28;20269;-76
2023/05/02 00:26:51;;;;;;;4.57;4.20;;;14.40;42.10;;;;;;10389590;28;20233;-77
2023/05/02 00:31:54;;;;;;;4.17;3.67;;;14.40;42.20;;;;;;10392781;28;20240;-77
2023/05/02 00:36:58;;;;;;;4.30;4.00;;;14.40;42.00;;;;;;10396965;28;20741;-76
2023/05/02 00:42:02;;;;;;;5.00;4.60;;;14.40;41.90;;;;;;10399605;28;20233;-76
2023/05/02 00:47:06;;;;;;;5.73;5.23;;;14.40;42.00;;;;;;10388706;28;20626;-77
2023/05/02 00:52:09;;;;;;;4.47;4.17;;;14.40;41.70;;;;;;10386814;28;20242;-77
2023/05/02 00:57:13;;;;;;;9.13;6.90;;;14.30;41.60;;;;;;10381935;28;20238;-77
2023/05/02 01:02:32;;;;;;;9.77;6.77;;;14.30;41.90;;;;;;10381271;28;20585;-77
2023/05/02 01:07:58;;;;;;;16.47;9.47;;;14.20;42.30;;;;;;10379983;28;20241;-76
2023/05/02 01:13:07;;;;;;;18.97;9.80;;;14.20;42.20;;;;;;10386246;28;20233;-76
2023/05/02 01:18:13;;;;;;;13.83;8.73;;;14.10;41.90;;;;;;10387823;28;20226;-77
2023/05/02 01:23:25;;;;;;;11.10;6.93;;;14.10;41.80;;;;;;10381199;28;20236;-77
2023/05/02 01:28:38;;;;;;;12.80;8.40;;;14.00;42.00;;;;;;10347364;28;1154090;-76
2023/05/02 01:33:44;;;;;;;11.27;7.90;;;14.00;42.20;;;;;;10380873;28;20237;-76
2023/05/02 01:38:48;;;;;;;10.20;7.70;;;13.90;41.80;;;;;;10382727;28;20219;-76
2023/05/02 01:43:53;;;;;;;7.93;5.50;;;13.90;41.50;;;;;;10393333;28;20238;-76
2023/05/02 01:49:01;;;;;;;6.63;6.03;;;13.90;41.50;;;;;;10381344;28;20230;-77
2023/05/02 01:54:07;;;;;;;5.60;5.10;;;13.90;41.60;;;;;;10381968;28;20230;-76
2023/05/02 01:59:12;;;;;;;4.87;4.47;;;13.80;41.30;;;;;;10385161;28;20721;-76
2023/05/02 02:04:19;;;;;;;5.20;4.80;;;13.80;41.50;;;;;;10388630;28;20236;-77
2023/05/02 02:09:22;;;;;;;5.03;4.63;;;13.70;41.80;;;;;;10398132;28;20293;-76
2023/05/02 02:14:27;;;;;;;5.17;4.77;;;13.70;41.80;;;;;;10397466;28;20238;-77
2023/05/02 02:19:33;;;;;;;6.90;6.20;;;13.60;41.70;;;;;;10391413;28;20233;-76
2023/05/02 02:24:38;;;;;;;9.43;7.50;;;13.50;42.00;;;;;;10394432;28;20226;-76
2023/05/02 02:29:41;;;;;;;8.50;7.40;;;13.40;42.20;;;;;;10389781;28;20234;-77
2023/05/02 02:34:45;;;;;;;6.93;6.33;;;13.30;42.30;;;;;;10389667;28;20237;-77
2023/05/02 02:39:58;;;;;;;5.63;5.20;;;13.30;42.80;;;;;;10387043;28;20236;-76
2023/05/02 02:45:09;;;;;;;5.70;5.20;;;13.30;42.90;;;;;;10391936;28;20234;-76
2023/05/02 02:50:20;;;;;;;5.40;5.00;;;13.30;43.00;;;;;;10390243;28;20230;-76
2023/05/02 02:55:34;;;;;;;5.53;5.07;;;13.30;43.10;;;;;;10393700;28;20233;-77
2023/05/02 03:00:38;;;;;;;5.27;4.77;;;13.30;43.20;;;;;;10389991;28;20222;-76
2023/05/02 03:05:43;;;;;;;4.47;4.17;;;13.30;42.80;;;;;;10388017;28;20230;-76
2023/05/02 03:10:46;;;;;;;4.43;4.07;;;13.20;43.60;;;;;;10391274;28;20964;-76
2023/05/02 03:16:32;;;;;;;4.87;4.50;;;13.20;42.70;;;;;;10390816;28;20577;-76
2023/05/02 03:21:38;;;;;;;5.13;4.73;;;13.20;43.70;;;;;;10323742;28;20235;-76
2023/05/02 03:26:41;;;;;;;5.67;5.23;;;13.20;43.10;;;;;;10384359;28;20773;-76
2023/05/02 03:31:44;;;;;;;5.23;4.80;;;13.30;42.80;;;;;;10394315;28;20236;-76
2023/05/02 03:36:49;;;;;;;5.27;4.87;;;13.30;42.90;;;;;;10389206;28;20540;-76
2023/05/02 03:41:52;;;;;;;5.13;4.73;;;13.30;43.50;;;;;;10394248;28;20230;-76
2023/05/02 03:46:55;;;;;;;6.00;5.20;;;13.30;43.40;;;;;;10389509;28;20669;-76
2023/05/02 03:52:00;;;;;;;5.10;4.70;;;13.30;43.10;;;;;;10386828;28;20282;-76
2023/05/02 03:57:04;;;;;;;4.83;4.53;;;13.30;43.80;;;;;;10388506;28;20685;-76
2023/05/02 04:02:07;;;;;;;5.33;4.83;;;13.30;43.30;;;;;;10385402;28;20263;-76
2023/05/02 04:07:17;;;;;;;5.17;4.77;;;13.30;43.50;;;;;;10385580;28;20237;-77
2023/05/02 04:12:20;;;;;;;4.97;4.67;;;13.30;43.90;;;;;;10385849;28;20223;-76
2023/05/02 04:17:23;;;;;;;5.57;5.17;;;13.30;43.80;;;;;;10388270;28;20241;-76
2023/05/02 04:22:28;;;;;;;4.60;4.30;;;13.30;43.80;;;;;;10384026;28;20230;-77
2023/05/02 04:27:31;;;;;;;5.87;4.70;;;13.30;44.10;;;;;;10384110;28;20576;-74
2023/05/02 04:32:34;;;;;;;5.40;4.90;;;13.40;43.80;;;;;;10380376;28;20233;-75
2023/05/02 04:37:39;;;;;;;4.13;3.83;;;13.40;43.90;;;;;;10384968;28;20265;-75
2023/05/02 04:42:42;;;;;;;4.77;4.37;;;13.40;44.30;;;;;;10383474;28;20233;-75
2023/05/02 04:47:45;;;;;;;4.03;3.73;;;13.40;43.90;;;;;;10377530;28;20255;-75
2023/05/02 04:52:49;;;;;;;5.13;4.73;;;13.40;43.90;;;;;;10385879;28;20222;-75
2023/05/02 04:57:52;;;;;;;4.93;4.53;;;13.40;44.40;;;;;;10383566;28;20256;-76
2023/05/02 05:02:56;;;;;;;4.83;4.43;;;13.50;44.10;;;;;;10381390;28;20245;-77
2023/05/02 05:08:04;;;;;;;5.10;4.70;;;13.50;44.00;;;;;;10388468;28;20244;-76
2023/05/02 05:13:07;;;;;;;5.00;4.50;;;13.50;44.50;;;;;;10388742;28;20833;-76
2023/05/02 05:18:10;;;;;;;4.87;4.53;;;13.50;44.10;;;;;;10398464;28;20238;-76
2023/05/02 05:23:15;;;;;;;5.10;4.73;;;13.50;44.30;;;;;;10383737;28;20903;-75
2023/05/02 05:28:18;;;;;;;4.90;4.60;;;13.60;44.80;;;;;;10382370;28;20240;-75
2023/05/02 05:33:21;;;;;;;4.87;4.50;;;13.60;44.50;;;;;;10379584;28;20233;-75
2023/05/02 05:38:26;;;;;;;4.17;3.87;;;13.70;44.50;;;;;;10382461;28;20291;-75
2023/05/02 05:43:30;;;;;;;4.77;4.40;;;13.70;45.00;;;;;;10381861;28;20304;-75
2023/05/02 05:48:33;;;;;;;4.50;4.20;;;13.80;44.60;;;;;;10388502;28;20242;-75
2023/05/02 05:53:38;;;;;;;4.70;4.37;;;13.90;44.60;;;;;;10386322;28;20652;-75
2023/05/02 05:58:42;;;;;;;4.60;4.30;;;13.90;44.70;;;;;;10391562;28;20305;-75
2023/05/02 06:03:46;;;;;;;5.17;4.67;;;14.00;44.40;;;;;;10385924;28;20219;-76
2023/05/02 06:08:51;;;;;;;5.50;5.00;;;14.00;44.40;;;;;;10388336;28;20298;-75
2023/05/02 06:13:54;;;;;;;6.07;5.57;;;14.00;44.50;;;;;;10389476;28;20303;-75
2023/05/02 06:18:57;;;;;;;6.33;5.83;;;14.00;44.30;;;;;;10383405;28;20226;-75
2023/05/02 06:24:02;;;;;;;5.30;4.80;;;14.00;44.40;;;;;;10377139;28;20756;-75
2023/05/02 06:29:05;;;;;;;6.30;5.80;;;14.00;44.60;;;;;;10376698;28;20629;-76
2023/05/02 06:34:08;;;;;;;6.10;5.60;;;14.00;44.40;;;;;;10382254;28;20249;-76
2023/05/02 06:39:13;;;;;;;6.57;6.07;;;14.10;44.50;;;;;;10387688;28;20255;-76
2023/05/02 06:44:16;;;;;;;7.00;6.50;;;14.10;44.60;;;;;;10372938;28;20405;-77
2023/05/02 06:49:19;;;;;;;7.37;6.87;;;14.10;44.40;;;;;;10384451;28;20813;-75
2023/05/02 06:54:23;;;;;;;8.17;7.47;;;14.10;44.70;;;;;;10384851;28;20242;-75
2023/05/02 06:59:27;;;;;;;8.50;7.80;;;14.10;45.40;;;;;;10382717;28;20320;-75
2023/05/02 07:04:30;;;;;;;7.50;6.77;;;14.20;45.20;;;;;;10385750;28;20228;-75
2023/05/02 07:09:34;;;;;;;7.43;6.83;;;14.30;45.10;;;;;;10385801;28;20770;-75
2023/05/02 07:14:38;;;;;;;6.77;6.27;;;14.50;45.40;;;;;;10388149;28;20596;-75
2023/05/02 07:19:41;;;;;;;8.07;7.37;;;14.50;45.10;;;;;;10389396;28;20230;-75
2023/05/02 07:24:48;;;;;;;7.93;7.23;;;14.60;45.10;;;;;;10389584;28;20241;-75
2023/05/02 07:29:51;;;;;;;6.97;6.47;;;14.70;45.10;;;;;;10386117;28;20237;-75
2023/05/02 07:34:55;;;;;;;7.43;6.83;;;14.70;44.70;;;;;;10386028;28;20234;-75
2023/05/02 07:40:00;;;;;;;8.13;7.53;;;14.80;44.50;;;;;;10381135;28;20218;-75
2023/05/02 07:45:05;;;;;;;7.30;6.70;;;14.80;44.60;;;;;;10387742;28;20320;-75
2023/05/02 07:50:09;;;;;;;7.67;7.07;;;14.80;44.60;;;;;;10388417;28;20240;-76
2023/05/02 07:55:14;;;;;;;7.80;7.10;;;14.90;44.70;;;;;;10384150;28;20249;-76
2023/05/02 08:00:17;;;;;;;8.20;7.40;;;15.00;44.70;;;;;;10389844;28;20217;-75
2023/05/02 08:05:21;;;;;;;7.63;6.93;;;15.00;44.50;;;;;;10393615;28;20233;-75
2023/05/02 08:10:26;;;;;;;7.67;7.07;;;15.10;44.40;;;;;;10387462;28;20724;-75
2023/05/02 08:15:30;;;;;;;8.43;7.63;;;15.10;44.40;;;;;;10387662;28;20694;-75
2023/05/02 08:20:33;;;;;;;7.73;7.13;;;15.20;44.50;;;;;;10392891;28;20230;-76
2023/05/02 08:25:37;;;;;;;7.43;6.83;;;15.30;44.60;;;;;;10388037;28;20726;-75
2023/05/02 08:30:40;;;;;;;7.70;7.10;;;15.40;44.70;;;;;;10393387;28;20230;-75
2023/05/02 08:35:44;;;;;;;8.10;7.50;;;15.50;44.80;;;;;;10387553;28;20221;-75
2023/05/02 08:40:49;;;;;;;7.50;6.90;;;15.50;44.60;;;;;;10387265;28;20223;-75
2023/05/02 08:45:56;;;;;;;8.07;7.47;;;15.50;44.30;;;;;;10390341;28;20237;-75
2023/05/02 08:51:00;;;;;;;7.73;7.13;;;15.60;44.80;;;;;;10388194;28;20675;-75
2023/05/02 08:56:06;;;;;;;7.30;6.80;;;15.60;44.50;;;;;;10389183;28;20258;-75
2023/05/02 09:01:12;;;;;;;8.37;7.53;;;15.50;44.80;;;;;;10395374;28;20237;-75
2023/05/02 09:06:17;;;;;;;8.73;8.10;;;15.60;44.70;;;;;;10389604;28;20233;-74
2023/05/02 09:11:22;;;;;;;8.43;7.73;;;15.70;44.50;;;;;;10384763;28;20224;-75
2023/05/02 09:16:27;;;;;;;9.33;8.63;;;15.80;44.20;;;;;;10390715;28;20230;-75
2023/05/02 09:21:36;;;;;;;9.40;8.60;;;15.80;44.10;;;;;;10389840;28;20324;-74
2023/05/02 09:26:41;;;;;;;8.63;7.83;;;15.90;44.30;;;;;;10383340;28;20226;-75
2023/05/02 09:31:47;;;;;;;9.97;9.17;;;16.00;44.20;;;;;;10385687;28;20233;-75
2023/05/02 09:36:58;;;;;;;11.97;10.97;;;16.10;44.50;;;;;;10388756;28;20234;-74
2023/05/02 09:42:03;;;;;;;12.23;11.03;;;16.20;44.10;;;;;;10382925;28;20236;-75
2023/05/02 09:47:08;;;;;;;10.83;9.97;;;16.20;44.10;;;;;;10383706;28;20232;-74
2023/05/02 09:52:12;;;;;;;12.03;11.03;;;16.30;44.50;;;;;;10386958;28;20582;-75
2023/05/02 09:57:16;;;;;;;11.33;10.40;;;16.40;44.40;;;;;;10384708;28;20229;-74
2023/05/02 10:02:21;;;;;;;8.73;7.93;;;16.50;44.50;;;;;;10385677;28;20241;-75
2023/05/02 10:07:26;;;;;;;9.83;8.93;;;16.60;44.30;;;;;;10398471;28;20233;-75
2023/05/02 10:12:32;;;;;;;9.03;8.23;;;16.80;44.60;;;;;;10395118;28;20230;-75
2023/05/02 10:17:41;;;;;;;9.97;9.07;;;16.90;44.20;;;;;;10384427;28;20230;-74
2023/05/02 10:22:47;;;;;;;9.00;8.30;;;17.00;43.50;;;;;;10395494;28;20234;-74
2023/05/02 10:27:51;;;;;;;8.93;8.23;;;17.10;43.60;;;;;;10395874;28;20610;-75
2023/05/02 10:32:59;;;;;;;8.93;8.23;;;17.20;43.30;;;;;;10394009;28;20229;-74
2023/05/02 10:38:03;;;;;;;8.10;7.50;;;17.30;43.60;;;;;;10393947;28;20654;-75
2023/05/02 10:43:08;;;;;;;8.37;7.57;;;17.40;43.70;;;;;;10388915;28;20229;-75
2023/05/02 10:48:19;;;;;;;9.10;8.40;;;17.60;43.70;;;;;;10389226;28;20229;-75
2023/05/02 10:53:31;;;;;;;7.77;7.20;;;17.80;43.50;;;;;;10393539;28;20260;-75
2023/05/02 10:58:36;;;;;;;8.00;7.20;;;18.00;43.00;;;;;;10390488;28;20246;-74
2023/05/02 11:03:56;;;;;;;8.00;7.30;;;18.10;43.30;;;;;;10402893;28;20233;-74
2023/05/02 11:09:35;;;;;;;7.70;7.10;;;18.20;42.50;;;;;;10397059;28;20238;-74
2023/05/02 11:14:47;;;;;;;8.07;7.43;;;18.30;42.50;;;;;;10396497;28;20236;-74
2023/05/02 11:20:27;;;;;;;7.80;7.00;;;18.40;42.40;;;;;;10397343;28;20222;-74
2023/05/02 11:25:38;;;;;;;8.93;8.13;;;18.40;42.70;;;;;;10392975;28;20221;-74
2023/05/02 11:30:49;;;;;;;9.60;8.70;;;18.50;42.40;;;;;;10392166;28;20225;-74
2023/05/02 11:35:52;;;;;;;8.40;7.73;;;18.50;42.10;;;;;;10388485;28;20234;-75
2023/05/02 11:40:58;;;;;;;9.50;8.80;;;18.50;42.10;;;;;;10394491;28;20221;-75
2023/05/02 11:46:04;;;;;;;9.03;8.17;;;18.40;42.30;;;;;;10389892;28;20601;-77
2023/05/02 11:51:08;;;;;;;8.80;8.10;;;18.30;42.20;;;;;;10396310;28;20730;-76
2023/05/02 11:56:11;;;;;;;8.93;8.23;;;18.20;42.30;;;;;;10398730;28;20229;-76
2023/05/02 12:01:16;;;;;;;9.20;8.50;;;18.20;42.50;;;;;;10386218;28;20316;-77
2023/05/02 12:06:19;;;;;;;9.00;8.30;;;18.10;42.40;;;;;;10393815;28;20225;-77
2023/05/02 12:11:24;;;;;;;8.20;7.57;;;18.10;42.30;;;;;;10390349;28;20232;-77
2023/05/02 12:16:29;;;;;;;9.47;8.77;;;18.10;42.60;;;;;;10387625;28;20238;-77
2023/05/02 12:21:33;;;;;;;9.03;8.33;;;18.10;42.60;;;;;;10386720;28;20237;-77
2023/05/02 12:26:36;;;;;;;8.43;7.73;;;18.20;42.80;;;;;;10390283;28;20225;-76
2023/05/02 12:31:50;;;;;;;8.43;7.73;;;18.30;42.70;;;;;;10383787;28;20233;-76
2023/05/02 12:36:54;;;;;;;7.70;7.10;;;18.40;42.70;;;;;;10388196;28;20233;-76
2023/05/02 12:41:57;;;;;;;7.93;7.33;;;18.50;42.20;;;;;;10394149;28;20217;-76
2023/05/02 12:47:01;;;;;;;8.53;7.73;;;18.50;41.80;;;;;;10388325;28;20600;-76
2023/05/02 12:52:05;;;;;;;7.07;6.57;;;18.60;41.80;;;;;;10387966;28;20705;-76
2023/05/02 12:57:08;;;;;;;8.27;7.67;;;18.70;42.00;;;;;;10383995;28;20244;-76
2023/05/02 13:02:13;;;;;;;7.20;6.70;;;18.80;41.60;;;;;;10382362;28;20955;-77
2023/05/02 13:07:16;;;;;;;8.00;7.30;;;18.80;41.10;;;;;;10389045;28;20823;-78
2023/05/02 13:12:20;;;;;;;6.30;5.80;;;19.00;41.30;;;;;;10397296;28;20233;-78
2023/05/02 13:17:24;;;;;;;6.43;6.00;;;19.00;41.30;;;;;;10386818;28;20229;-78
2023/05/02 13:22:28;;;;;;;6.57;6.07;;;19.10;41.10;;;;;;10386068;28;20236;-77
2023/05/02 13:27:33;;;;;;;6.60;6.10;;;19.20;41.00;;;;;;10392476;28;20241;-77
2023/05/02 13:32:38;;;;;;;7.00;6.50;;;19.30;41.00;;;;;;10403885;28;20226;-77
2023/05/02 13:37:41;;;;;;;7.03;6.50;;;19.40;40.60;;;;;;10400354;28;20280;-77
2023/05/02 13:42:45;;;;;;;6.57;5.97;;;19.50;40.80;;;;;;10392482;28;20230;-76
2023/05/02 13:47:49;;;;;;;5.83;5.37;;;19.60;40.50;;;;;;10395587;28;20321;-78
2023/05/02 13:52:53;;;;;;;6.40;5.90;;;19.70;39.50;;;;;;10402130;28;20716;-77
2023/05/02 13:57:56;;;;;;;6.17;5.73;;;19.70;39.50;;;;;;10400456;28;20238;-77
2023/05/02 14:03:00;;;;;;;4.97;4.57;;;19.80;39.70;;;;;;10398225;28;20697;-77
2023/05/02 14:08:04;;;;;;;5.40;5.00;;;19.70;38.90;;;;;;10397079;28;20237;-77
2023/05/02 14:13:07;;;;;;;5.20;4.90;;;19.80;39.50;;;;;;10402178;28;20245;-77
2023/05/02 14:18:12;;;;;;;5.23;4.83;;;19.80;39.00;;;;;;10385943;28;20665;-76
2023/05/02 14:23:15;;;;;;;4.83;4.50;;;19.80;38.60;;;;;;10377417;28;20221;-76
2023/05/02 14:28:18;;;;;;;5.23;4.87;;;19.90;38.90;;;;;;10380221;28;20690;-76
2023/05/02 14:33:23;;;;;;;5.83;5.43;;;20.00;38.50;;;;;;10383273;28;20771;-76
2023/05/02 14:38:26;;;;;;;5.00;4.60;;;20.10;37.90;;;;;;10379189;28;20728;-76
2023/05/02 14:43:29;;;;;;;5.60;5.13;;;20.10;38.10;;;;;;10387192;28;20229;-76
2023/05/02 14:48:34;;;;;;;3.00;2.70;;;20.10;38.00;;;;;;10393840;28;20373;-75
2023/05/02 14:53:38;;;;;;;1.90;1.80;;;20.10;36.40;;;;;;10393112;28;20225;-76
2023/05/02 14:58:41;;;;;;;3.27;1.70;;;19.80;35.50;;;;;;10386699;28;20769;-75
2023/05/02 15:03:46;;;;;;;2.43;1.70;;;19.40;35.90;;;;;;10380379;28;20234;-75
2023/05/02 15:09:07;;;;;;;2.77;1.70;;;19.00;35.60;;;;;;10379051;28;20477;-74
2023/05/02 15:14:10;;;;;;;2.33;1.70;;;18.60;36.70;;;;;;10384709;28;20332;-74
2023/05/02 15:19:16;;;;;;;1.60;1.50;;;18.30;36.70;;;;;;10382162;28;20236;-74
2023/05/02 15:24:20;;;;;;;2.00;1.80;;;18.10;37.10;;;;;;10383804;28;20237;-74
2023/05/02 15:29:23;;;;;;;1.80;1.70;;;18.00;37.60;;;;;;10385827;28;20607;-74
2023/05/02 15:34:28;;;;;;;1.80;1.70;;;17.80;38.00;;;;;;10380067;28;20256;-75
2023/05/02 15:39:32;;;;;;;3.20;1.90;;;17.70;38.40;;;;;;10377237;28;20233;-75
2023/05/02 15:44:36;;;;;;;2.00;1.90;;;17.60;38.40;;;;;;10382955;28;20774;-75
2023/05/02 15:49:40;;;;;;;1.90;1.80;;;17.50;38.70;;;;;;10384257;28;20413;-75
2023/05/02 15:54:43;;;;;;;1.80;1.70;;;17.50;39.00;;;;;;10381613;28;20236;-75
2023/05/02 15:59:46;;;;;;;1.73;1.63;;;17.40;39.00;;;;;;10385698;28;20573;-74
2023/05/02 16:04:51;;;;;;;1.40;1.40;;;17.50;39.40;;;;;;10383494;28;20730;-74
2023/05/02 16:09:54;;;;;;;1.70;1.60;;;17.50;38.80;;;;;;10374334;28;20593;-74
2023/05/02 16:14:57;;;;;;;1.70;1.60;;;17.60;39.10;;;;;;10377735;28;20233;-75
2023/05/02 16:20:01;;;;;;;1.60;1.50;;;17.70;39.10;;;;;;10384626;28;20241;-75
2023/05/02 16:25:06;;;;;;;2.20;1.97;;;17.70;39.30;;;;;;10379033;28;20238;-74
2023/05/02 16:30:10;;;;;;;2.10;2.00;;;17.80;39.50;;;;;;10378204;28;20260;-75
2023/05/02 16:35:15;;;;;;;2.73;1.90;;;17.90;39.50;;;;;;10384537;28;20236;-74
2023/05/02 16:40:18;;;;;;;2.10;2.00;;;17.90;39.00;;;;;;10386693;28;20229;-74
2023/05/02 16:45:21;;;;;;;2.33;2.20;;;18.00;39.10;;;;;;10386340;28;20221;-74
2023/05/02 16:50:26;;;;;;;5.97;5.37;;;18.00;39.50;;;;;;10383199;28;20226;-74
2023/05/02 16:55:29;;;;;;;3.67;3.37;;;17.90;39.20;;;;;;10384131;28;20228;-74
2023/05/02 17:00:32;;;;;;;3.30;3.00;;;17.80;39.10;;;;;;10378701;28;20225;-74
2023/05/02 17:05:37;;;;;;;3.23;2.60;;;17.70;39.50;;;;;;10381233;28;20245;-75
2023/05/02 17:10:40;;;;;;;2.90;2.60;;;17.70;39.60;;;;;;10377673;28;20233;-75
2023/05/02 17:15:43;;;;;;;2.90;2.70;;;17.60;39.50;;;;;;10381433;28;20241;-74
2023/05/02 17:20:48;;;;;;;3.30;3.10;;;17.40;39.50;;;;;;10377386;28;20617;-74
2023/05/02 17:25:51;;;;;;;3.20;3.00;;;17.40;39.70;;;;;;10378733;28;20238;-74
2023/05/02 17:30:57;;;;;;;3.93;3.10;;;17.30;40.00;;;;;;10381802;28;20238;-74
2023/05/02 17:36:03;;;;;;;3.03;2.70;;;17.30;40.00;;;;;;10376225;28;20236;-74
2023/05/02 17:41:06;;;;;;;2.80;2.60;;;17.20;40.10;;;;;;10376342;28;20322;-74
2023/05/02 17:46:09;;;;;;;3.87;3.07;;;17.20;40.10;;;;;;10375257;28;20241;-74
2023/05/02 17:51:14;;;;;;;3.03;2.80;;;17.10;40.10;;;;;;10378518;28;20702;-74
2023/05/02 17:56:17;;;;;;;6.77;5.83;;;17.10;40.10;;;;;;10385030;28;20238;-74
2023/05/02 18:01:20;;;;;;;8.70;7.50;;;17.00;40.00;;;;;;10376509;28;20222;-74
2023/05/02 18:06:26;;;;;;;4.20;3.80;;;16.90;39.90;;;;;;10378762;28;20651;-75
2023/05/02 18:11:30;;;;;;;3.43;3.23;;;16.90;40.00;;;;;;10378768;28;20606;-75
2023/05/02 18:16:35;;;;;;;3.13;2.93;;;16.80;39.60;;;;;;10375694;28;20236;-74
2023/05/02 18:21:39;;;;;;;3.67;3.37;;;16.70;39.60;;;;;;10378792;28;20648;-74
2023/05/02 18:26:42;;;;;;;3.40;3.10;;;16.70;39.70;;;;;;10378635;28;20804;-74
2023/05/02 18:31:51;;;;;;;4.30;3.30;;;16.60;39.70;;;;;;10378374;28;20226;-74
2023/05/02 18:37:00;;;;;;;3.90;3.60;;;16.60;39.70;;;;;;10380158;28;20283;-74
2023/05/02 18:42:04;;;;;;;3.50;3.30;;;16.50;40.10;;;;;;10399168;28;20708;-74
2023/05/02 18:47:08;;;;;;;3.87;3.57;;;16.40;40.10;;;;;;10393363;28;20226;-74
2023/05/02 18:52:13;;;;;;;3.87;3.57;;;16.40;40.20;;;;;;10393510;28;20238;-74
2023/05/02 18:57:16;;;;;;;3.60;3.30;;;16.30;40.30;;;;;;10386919;28;20741;-74
2023/05/02 19:02:20;;;;;;;4.03;3.67;;;16.30;40.20;;;;;;10396339;28;20228;-75
2023/05/02 19:07:26;;;;;;;4.17;3.77;;;16.30;40.30;;;;;;10385178;28;20234;-74
2023/05/02 19:12:29;;;;;;;4.43;4.03;;;16.20;40.50;;;;;;10394817;28;20225;-74
2023/05/02 19:17:32;;;;;;;4.23;3.93;;;16.20;40.40;;;;;;10392661;28;20230;-75
2023/05/02 19:22:37;;;;;;;4.17;3.87;;;16.10;40.40;;;;;;10395301;28;20279;-75
2023/05/02 19:27:41;;;;;;;4.17;3.87;;;16.00;41.00;;;;;;10385137;28;20245;-75
2023/05/02 19:32:44;;;;;;;4.17;3.83;;;16.00;40.60;;;;;;10389243;28;20230;-74
2023/05/02 19:37:48;;;;;;;4.40;4.10;;;15.90;40.60;;;;;;10390732;28;20325;-75
2023/05/02 19:42:52;;;;;;;4.20;3.90;;;15.90;40.90;;;;;;10398890;28;20234;-74
2023/05/02 19:47:55;;;;;;;4.30;4.00;;;15.90;40.80;;;;;;10396861;28;20238;-74
2023/05/02 19:53:00;;;;;;;4.30;3.90;;;15.90;41.00;;;;;;10391773;28;20272;-75
2023/05/02 19:58:03;;;;;;;4.17;3.87;;;15.90;41.00;;;;;;10392426;28;20615;-75
2023/05/02 20:03:07;;;;;;;4.43;4.13;;;15.90;40.80;;;;;;10384830;28;20305;-75
2023/05/02 20:08:15;;;;;;;3.87;3.50;;;15.90;40.90;;;;;;10400476;28;20230;-75
2023/05/02 20:13:18;;;;;;;4.03;3.83;;;15.90;41.60;;;;;;10388270;28;20236;-75
2023/05/02 20:18:21;;;;;;;4.47;4.07;;;16.00;41.10;;;;;;10404080;28;20248;-75
2023/05/02 20:23:26;;;;;;;4.43;4.03;;;16.00;41.10;;;;;;10391028;28;20596;-75
2023/05/02 20:28:29;;;;;;;5.30;4.33;;;16.00;41.30;;;;;;10393062;28;20230;-75
2023/05/02 20:33:33;;;;;;;4.13;3.83;;;16.00;41.10;;;;;;10395232;28;20230;-75
2023/05/02 20:38:48;;;;;;;3.40;3.10;;;16.00;40.90;;;;;;10395934;28;20718;-75
2023/05/02 20:43:53;;;;;;;3.60;3.30;;;16.00;41.80;;;;;;10395389;28;20245;-75
2023/05/02 20:48:58;;;;;;;4.00;3.70;;;16.00;41.00;;;;;;10386579;28;20232;-75
2023/05/02 20:54:02;;;;;;;3.83;3.53;;;16.00;40.90;;;;;;10391076;28;20880;-75
2023/05/02 20:59:05;;;;;;;3.60;3.30;;;16.00;40.80;;;;;;10397752;28;20803;-75
2023/05/02 21:04:08;;;;;;;4.47;3.90;;;16.00;40.70;;;;;;10396364;28;20237;-75
2023/05/02 21:09:13;;;;;;;5.00;4.13;;;16.00;40.70;;;;;;10394870;28;20234;-75
2023/05/02 21:14:17;;;;;;;3.97;3.57;;;15.90;40.50;;;;;;10390992;28;20236;-75
2023/05/02 21:19:20;;;;;;;4.63;4.20;;;15.80;40.30;;;;;;10392060;28;20233;-75
2023/05/02 21:24:25;;;;;;;4.30;4.00;;;15.80;40.40;;;;;;10397350;28;20713;-75
2023/05/02 21:29:28;;;;;;;3.87;3.57;;;15.70;40.40;;;;;;10393608;28;20233;-75
2023/05/02 21:34:31;;;;;;;3.10;2.90;;;15.60;40.30;;;;;;10393812;28;20241;-75
2023/05/02 21:39:37;;;;;;;4.10;3.80;;;15.60;40.50;;;;;;10392714;28;20227;-75
2023/05/02 21:44:40;;;;;;;3.37;3.17;;;15.60;40.50;;;;;;10393349;28;20284;-75
2023/05/02 21:49:43;;;;;;;3.93;3.67;;;15.50;40.30;;;;;;10389876;28;20226;-75
2023/05/02 21:54:50;;;;;;;3.10;2.90;;;15.50;39.90;;;;;;10389861;28;20296;-75
2023/05/02 21:59:54;;;;;;;3.00;2.80;;;15.40;39.70;;;;;;10394995;28;20244;-75
2023/05/02 22:04:57;;;;;;;2.80;2.60;;;15.30;39.50;;;;;;10399062;28;20233;-75
2023/05/02 22:10:02;;;;;;;2.70;2.50;;;15.20;39.50;;;;;;10396051;28;20226;-75
2023/05/02 22:15:10;;;;;;;2.90;2.70;;;15.00;39.60;;;;;;10391391;28;20229;-75
2023/05/02 22:20:13;;;;;;;2.90;2.60;;;14.90;39.80;;;;;;10400189;28;20230;-75
2023/05/02 22:25:18;;;;;;;4.07;2.67;;;14.80;39.60;;;;;;10397871;28;20231;-75
2023/05/02 22:30:22;;;;;;;3.03;2.73;;;14.70;39.60;;;;;;10393869;28;20239;-75
2023/05/02 22:35:25;;;;;;;2.83;2.63;;;14.60;39.60;;;;;;10400181;28;20237;-74
2023/05/02 22:40:31;;;;;;;2.80;2.60;;;14.50;39.50;;;;;;10396758;28;20230;-75
2023/05/02 22:45:35;;;;;;;2.90;2.70;;;14.40;39.40;;;;;;10395429;28;20226;-75
2023/05/02 22:50:38;;;;;;;3.37;3.07;;;14.30;39.60;;;;;;10408645;28;20230;-74
2023/05/02 22:55:43;;;;;;;3.00;2.80;;;14.10;39.60;;;;;;10394891;28;20229;-75
2023/05/02 23:00:46;;;;;;;3.30;3.03;;;14.10;40.10;;;;;;10402256;28;20256;-74
2023/05/02 23:05:49;;;;;;;3.50;3.17;;;14.00;40.10;;;;;;10401609;28;20225;-75
2023/05/02 23:10:54;;;;;;;2.70;2.50;;;14.00;40.00;;;;;;10396318;28;20702;-75
2023/05/02 23:15:58;;;;;;;2.67;2.47;;;13.90;40.30;;;;;;10393029;28;20241;-74
2023/05/02 23:21:03;;;;;;;3.00;2.80;;;13.90;40.30;;;;;;10397840;28;20244;-74
2023/05/02 23:26:09;;;;;;;3.00;2.80;;;13.90;40.30;;;;;;10393981;28;20269;-75
2023/05/02 23:31:12;;;;;;;2.90;2.70;;;13.80;40.20;;;;;;10404766;28;20238;-75
2023/05/02 23:36:16;;;;;;;3.30;3.10;;;13.80;40.10;;;;;;10392918;28;20714;-74
2023/05/02 23:41:21;;;;;;;3.20;2.90;;;13.80;40.00;;;;;;10394370;28;20230;-75
2023/05/02 23:46:24;;;;;;;3.30;3.00;;;13.80;40.00;;;;;;10396606;28;20229;-74
2023/05/02 23:51:28;;;;;;;3.07;2.87;;;13.70;39.80;;;;;;10393175;28;20240;-75
2023/05/02 23:56:32;;;;;;;5.20;3.30;;;13.60;39.50;;;;;;10392047;28;20266;-75
